VOE1830 LIPX-LKPR
Flight info
| Callsign | VOE1830 |
|---|---|
| Flight time | 1h 5m |
| Altitude | 33000 |
| Route | OTZOM Y480 UPXUF L612 ADOSA DCT BORMI DCT RASTA DCT MEDEL DCT BUDEX/N0438F340 DCT APRAQ |
| Aircraft | A320/M-SDFGHIJ1RWY/LB1 |
Departure
| Time | 2026-04-21 08:03 |
|---|---|
| Airport | Verona Villafranca Valerio Catullo Airport (LIPX) |
Arrival
| Time | 2026-04-21 09:08 |
|---|---|
| Airport | Václav Havel Airport Prague (LKPR) |
| Time | Latitude | Longitude | Altitude | Speed | Heading |
|---|---|---|---|---|---|
| 2026-04-21 07:41 | 45.40330 | 10.90639 | 237 ft | 0 kts | 135° |
| 2026-04-21 07:54 | 45.40333 | 10.90635 | 237 ft | 3 kts | 135° |
| 2026-04-21 07:54 | 45.40352 | 10.90608 | 237 ft | 4 kts | 146° |
| 2026-04-21 07:54 | 45.40374 | 10.90598 | 237 ft | 4 kts | 200° |
| 2026-04-21 07:55 | 45.40391 | 10.90613 | 237 ft | 1 kts | 226° |
| 2026-04-21 07:55 | 45.40394 | 10.90617 | 237 ft | 0 kts | 226° |
| 2026-04-21 07:57 | 45.40387 | 10.90607 | 237 ft | 4 kts | 226° |
| 2026-04-21 07:57 | 45.40348 | 10.90549 | 237 ft | 12 kts | 226° |
| 2026-04-21 07:57 | 45.40275 | 10.90445 | 237 ft | 15 kts | 227° |
| 2026-04-21 07:57 | 45.40286 | 10.90341 | 237 ft | 11 kts | 317° |
| 2026-04-21 07:58 | 45.40332 | 10.90240 | 236 ft | 14 kts | 279° |
| 2026-04-21 07:58 | 45.40371 | 10.90092 | 236 ft | 18 kts | 299° |
| 2026-04-21 07:58 | 45.40434 | 10.89929 | 237 ft | 20 kts | 277° |
| 2026-04-21 07:58 | 45.40409 | 10.89729 | 237 ft | 22 kts | 240° |
| 2026-04-21 07:59 | 45.40295 | 10.89559 | 237 ft | 26 kts | 225° |
| 2026-04-21 07:59 | 45.40169 | 10.89376 | 237 ft | 26 kts | 225° |
| 2026-04-21 07:59 | 45.40040 | 10.89189 | 237 ft | 27 kts | 226° |
| 2026-04-21 07:59 | 45.39910 | 10.88998 | 237 ft | 27 kts | 226° |
| 2026-04-21 08:00 | 45.39776 | 10.88805 | 237 ft | 28 kts | 225° |
| 2026-04-21 08:00 | 45.39642 | 10.88608 | 237 ft | 28 kts | 226° |
| 2026-04-21 08:00 | 45.39505 | 10.88408 | 237 ft | 28 kts | 226° |
| 2026-04-21 08:00 | 45.39365 | 10.88208 | 237 ft | 29 kts | 226° |
| 2026-04-21 08:01 | 45.39226 | 10.88002 | 238 ft | 29 kts | 226° |
| 2026-04-21 08:01 | 45.39086 | 10.87800 | 238 ft | 29 kts | 226° |
| 2026-04-21 08:01 | 45.38954 | 10.87606 | 238 ft | 24 kts | 225° |
| 2026-04-21 08:02 | 45.38821 | 10.87544 | 238 ft | 9 kts | 136° |
| 2026-04-21 08:02 | 45.38767 | 10.87621 | 239 ft | 12 kts | 124° |
| 2026-04-21 08:02 | 45.38793 | 10.87720 | 240 ft | 11 kts | 45° |
| 2026-04-21 08:02 | 45.38894 | 10.87873 | 240 ft | 47 kts | 46° |
| 2026-04-21 08:03 | 45.39284 | 10.88434 | 238 ft | 110 kts | 46° |
| 2026-04-21 08:03 | 45.39937 | 10.89384 | 243 ft | 159 kts | 46° |
| 2026-04-21 08:03 | 45.40723 | 10.90570 | 691 ft | 168 kts | 50° |
| 2026-04-21 08:03 | 45.41313 | 10.91993 | 1377 ft | 168 kts | 78° |
| 2026-04-21 08:04 | 45.41149 | 10.93627 | 2025 ft | 176 kts | 115° |
| 2026-04-21 08:04 | 45.40280 | 10.94988 | 2398 ft | 199 kts | 140° |
| 2026-04-21 08:04 | 45.39205 | 10.96335 | 2771 ft | 214 kts | 122° |
| 2026-04-21 08:04 | 45.38581 | 10.98316 | 3236 ft | 225 kts | 110° |
| 2026-04-21 08:05 | 45.37916 | 11.00353 | 3986 ft | 229 kts | 115° |
| 2026-04-21 08:05 | 45.37144 | 11.02430 | 4528 ft | 248 kts | 117° |
| 2026-04-21 08:05 | 45.36320 | 11.04597 | 5255 ft | 256 kts | 117° |
| 2026-04-21 08:05 | 45.35472 | 11.06836 | 6124 ft | 259 kts | 117° |
| 2026-04-21 08:06 | 45.34611 | 11.09133 | 6871 ft | 267 kts | 117° |
| 2026-04-21 08:06 | 45.33738 | 11.11494 | 7620 ft | 274 kts | 117° |
| 2026-04-21 08:06 | 45.32847 | 11.13922 | 8346 ft | 280 kts | 116° |
| 2026-04-21 08:06 | 45.31948 | 11.16414 | 9083 ft | 287 kts | 114° |
| 2026-04-21 08:07 | 45.31446 | 11.19164 | 9766 ft | 292 kts | 90° |
| 2026-04-21 08:07 | 45.31743 | 11.21981 | 10377 ft | 298 kts | 68° |
| 2026-04-21 08:07 | 45.32825 | 11.24570 | 10605 ft | 316 kts | 44° |
| 2026-04-21 08:07 | 45.34664 | 11.26359 | 10964 ft | 327 kts | 18° |
| 2026-04-21 08:08 | 45.36898 | 11.26900 | 11566 ft | 329 kts | 354° |
| 2026-04-21 08:08 | 45.39091 | 11.26081 | 12253 ft | 328 kts | 330° |
| 2026-04-21 08:08 | 45.40913 | 11.24145 | 12997 ft | 328 kts | 317° |
| 2026-04-21 08:08 | 45.42625 | 11.21990 | 13798 ft | 329 kts | 316° |
| 2026-04-21 08:09 | 45.44334 | 11.19803 | 14483 ft | 331 kts | 316° |
| 2026-04-21 08:09 | 45.46047 | 11.17598 | 15143 ft | 333 kts | 316° |
| 2026-04-21 08:09 | 45.47848 | 11.15563 | 15775 ft | 339 kts | 325° |
| 2026-04-21 08:09 | 45.49976 | 11.14059 | 16427 ft | 346 kts | 337° |
| 2026-04-21 08:10 | 45.52333 | 11.13241 | 17064 ft | 354 kts | 349° |
| 2026-04-21 08:10 | 45.54819 | 11.13083 | 17688 ft | 360 kts | 353° |
| 2026-04-21 08:10 | 45.57259 | 11.12446 | 18264 ft | 355 kts | 336° |
| 2026-04-21 08:10 | 45.59456 | 11.10894 | 18809 ft | 352 kts | 323° |
| 2026-04-21 08:11 | 45.61345 | 11.08700 | 19366 ft | 349 kts | 312° |
| 2026-04-21 08:11 | 45.62895 | 11.06048 | 19991 ft | 348 kts | 304° |
| 2026-04-21 08:11 | 45.64522 | 11.03544 | 20640 ft | 352 kts | 319° |
| 2026-04-21 08:11 | 45.66696 | 11.01889 | 21291 ft | 362 kts | 338° |
| 2026-04-21 08:12 | 45.69234 | 11.01506 | 21820 ft | 378 kts | 0° |
| 2026-04-21 08:12 | 45.71784 | 11.02671 | 22337 ft | 398 kts | 23° |
| 2026-04-21 08:12 | 45.74153 | 11.04793 | 22894 ft | 403 kts | 24° |
| 2026-04-21 08:12 | 45.76619 | 11.06669 | 23399 ft | 399 kts | 16° |
| 2026-04-21 08:13 | 45.79220 | 11.07967 | 23867 ft | 395 kts | 8° |
| 2026-04-21 08:13 | 45.81871 | 11.09020 | 24338 ft | 395 kts | 7° |
| 2026-04-21 08:13 | 45.84544 | 11.09993 | 24808 ft | 397 kts | 6° |
| 2026-04-21 08:13 | 45.87235 | 11.10921 | 25214 ft | 399 kts | 5° |
| 2026-04-21 08:14 | 45.89911 | 11.11827 | 25616 ft | 401 kts | 5° |
| 2026-04-21 08:14 | 45.92640 | 11.12755 | 25983 ft | 405 kts | 5° |
| 2026-04-21 08:14 | 45.95382 | 11.13707 | 26389 ft | 407 kts | 6° |
| 2026-04-21 08:14 | 45.98143 | 11.14682 | 26796 ft | 409 kts | 6° |
| 2026-04-21 08:15 | 46.00900 | 11.15837 | 27181 ft | 419 kts | 13° |
| 2026-04-21 08:15 | 46.03559 | 11.17692 | 27583 ft | 432 kts | 23° |
| 2026-04-21 08:15 | 46.06029 | 11.20271 | 27925 ft | 446 kts | 33° |
| 2026-04-21 08:15 | 46.08268 | 11.23433 | 28252 ft | 453 kts | 38° |
| 2026-04-21 08:16 | 46.10457 | 11.26634 | 28582 ft | 456 kts | 37° |
| 2026-04-21 08:16 | 46.12688 | 11.29897 | 28925 ft | 458 kts | 38° |
| 2026-04-21 08:16 | 46.14928 | 11.33177 | 29226 ft | 460 kts | 37° |
| 2026-04-21 08:16 | 46.17179 | 11.36477 | 29539 ft | 463 kts | 37° |
| 2026-04-21 08:17 | 46.19443 | 11.39799 | 29850 ft | 465 kts | 38° |
| 2026-04-21 08:17 | 46.21720 | 11.43137 | 30093 ft | 468 kts | 37° |
| 2026-04-21 08:17 | 46.24006 | 11.46499 | 30363 ft | 470 kts | 37° |
| 2026-04-21 08:17 | 46.26295 | 11.49877 | 30628 ft | 471 kts | 38° |
| 2026-04-21 08:18 | 46.28557 | 11.53221 | 30883 ft | 473 kts | 38° |
| 2026-04-21 08:18 | 46.30858 | 11.56622 | 31111 ft | 473 kts | 38° |
| 2026-04-21 08:18 | 46.33163 | 11.60032 | 31342 ft | 473 kts | 38° |
| 2026-04-21 08:18 | 46.35460 | 11.63435 | 31643 ft | 472 kts | 38° |
| 2026-04-21 08:19 | 46.37754 | 11.66837 | 32003 ft | 472 kts | 37° |
| 2026-04-21 08:19 | 46.40047 | 11.70240 | 32330 ft | 472 kts | 37° |
| 2026-04-21 08:19 | 46.42338 | 11.73649 | 32654 ft | 472 kts | 37° |
| 2026-04-21 08:19 | 46.44594 | 11.77009 | 32923 ft | 471 kts | 37° |
| 2026-04-21 08:20 | 46.46872 | 11.80410 | 33003 ft | 465 kts | 37° |
| 2026-04-21 08:20 | 46.51315 | 11.87076 | 33012 ft | 456 kts | 37° |
| 2026-04-21 08:21 | 46.55726 | 11.93658 | 33037 ft | 454 kts | 36° |
| 2026-04-21 08:21 | 46.60135 | 12.00257 | 33024 ft | 455 kts | 37° |
| 2026-04-21 08:22 | 46.64513 | 12.06840 | 33013 ft | 456 kts | 37° |
| 2026-04-21 08:22 | 46.68914 | 12.13474 | 33015 ft | 455 kts | 37° |
| 2026-04-21 08:23 | 46.73310 | 12.20128 | 33074 ft | 456 kts | 37° |
| 2026-04-21 08:23 | 46.77708 | 12.26794 | 33050 ft | 456 kts | 37° |
| 2026-04-21 08:24 | 46.82075 | 12.33432 | 33048 ft | 457 kts | 37° |
| 2026-04-21 08:24 | 46.86480 | 12.40133 | 33039 ft | 457 kts | 37° |
| 2026-04-21 08:25 | 46.90877 | 12.46853 | 33046 ft | 458 kts | 37° |
| 2026-04-21 08:25 | 46.95280 | 12.53590 | 33061 ft | 458 kts | 37° |
| 2026-04-21 08:26 | 46.99658 | 12.60313 | 33059 ft | 459 kts | 37° |
| 2026-04-21 08:26 | 47.04063 | 12.67097 | 33066 ft | 460 kts | 37° |
| 2026-04-21 08:27 | 47.08471 | 12.73899 | 33069 ft | 460 kts | 37° |
| 2026-04-21 08:27 | 47.12879 | 12.80717 | 33095 ft | 461 kts | 39° |
| 2026-04-21 08:28 | 47.16544 | 12.86397 | 33104 ft | 460 kts | 39° |
| 2026-04-21 08:28 | 47.21659 | 12.94349 | 33096 ft | 460 kts | 39° |
| 2026-04-21 08:29 | 47.26056 | 13.01198 | 33100 ft | 461 kts | 39° |
| 2026-04-21 08:29 | 47.29715 | 13.06910 | 33134 ft | 461 kts | 40° |
| 2026-04-21 08:30 | 47.34098 | 13.13795 | 33137 ft | 460 kts | 40° |
| 2026-04-21 08:30 | 47.38469 | 13.20665 | 33137 ft | 459 kts | 40° |
| 2026-04-21 08:31 | 47.43549 | 13.28652 | 33137 ft | 459 kts | 40° |
| 2026-04-21 08:31 | 47.47248 | 13.34214 | 33148 ft | 452 kts | 33° |
| 2026-04-21 08:32 | 47.52456 | 13.39004 | 33146 ft | 434 kts | 15° |
| 2026-04-21 08:32 | 47.58141 | 13.41585 | 33142 ft | 426 kts | 8° |
| 2026-04-21 08:33 | 47.63866 | 13.43879 | 33136 ft | 426 kts | 8° |
| 2026-04-21 08:33 | 47.69587 | 13.46184 | 33142 ft | 426 kts | 9° |
| 2026-04-21 08:34 | 47.75261 | 13.48495 | 33129 ft | 426 kts | 9° |
| 2026-04-21 08:34 | 47.80981 | 13.50805 | 33130 ft | 426 kts | 9° |
| 2026-04-21 08:35 | 47.86695 | 13.53104 | 33149 ft | 426 kts | 10° |
| 2026-04-21 08:35 | 47.92414 | 13.55430 | 33136 ft | 426 kts | 10° |
| 2026-04-21 08:36 | 47.98098 | 13.57761 | 33137 ft | 427 kts | 10° |
| 2026-04-21 08:36 | 48.03822 | 13.60105 | 33135 ft | 427 kts | 10° |
| 2026-04-21 08:37 | 48.09548 | 13.62434 | 33133 ft | 426 kts | 10° |
| 2026-04-21 08:37 | 48.15274 | 13.64776 | 33140 ft | 427 kts | 10° |
| 2026-04-21 08:38 | 48.20953 | 13.67428 | 33136 ft | 432 kts | 19° |
| 2026-04-21 08:38 | 48.26197 | 13.71859 | 33164 ft | 437 kts | 26° |
| 2026-04-21 08:39 | 48.31426 | 13.76500 | 33151 ft | 436 kts | 26° |
| 2026-04-21 08:39 | 48.36644 | 13.81123 | 33147 ft | 435 kts | 26° |
| 2026-04-21 08:40 | 48.41859 | 13.85757 | 33143 ft | 435 kts | 26° |
| 2026-04-21 08:40 | 48.47034 | 13.90382 | 33158 ft | 435 kts | 27° |
| 2026-04-21 08:41 | 48.52238 | 13.95046 | 33155 ft | 435 kts | 27° |
| 2026-04-21 08:41 | 48.57438 | 13.99714 | 33162 ft | 435 kts | 27° |
| 2026-04-21 08:42 | 48.62633 | 14.04392 | 33154 ft | 434 kts | 27° |
| 2026-04-21 08:42 | 48.67791 | 14.09037 | 33170 ft | 434 kts | 27° |
| 2026-04-21 08:43 | 48.72981 | 14.13712 | 33165 ft | 434 kts | 27° |
| 2026-04-21 08:43 | 48.78159 | 14.18403 | 33161 ft | 433 kts | 27° |
| 2026-04-21 08:44 | 48.83326 | 14.23102 | 33159 ft | 433 kts | 27° |
| 2026-04-21 08:44 | 48.88486 | 14.27813 | 33167 ft | 433 kts | 28° |
| 2026-04-21 08:45 | 48.93890 | 14.31416 | 33160 ft | 425 kts | 10° |
| 2026-04-21 08:45 | 48.99697 | 14.32027 | 33154 ft | 417 kts | 351° |
| 2026-04-21 08:46 | 49.05376 | 14.30410 | 33145 ft | 415 kts | 346° |
| 2026-04-21 08:46 | 49.08196 | 14.29558 | 32915 ft | 410 kts | 347° |
| 2026-04-21 08:46 | 49.10983 | 14.28722 | 32646 ft | 407 kts | 347° |
| 2026-04-21 08:46 | 49.13749 | 14.27891 | 32390 ft | 404 kts | 347° |
| 2026-04-21 08:47 | 49.16463 | 14.27075 | 32133 ft | 402 kts | 347° |
| 2026-04-21 08:47 | 49.19194 | 14.26250 | 31872 ft | 399 kts | 347° |
| 2026-04-21 08:47 | 49.21899 | 14.25430 | 31464 ft | 394 kts | 347° |
| 2026-04-21 08:47 | 49.24578 | 14.24615 | 30987 ft | 391 kts | 347° |
| 2026-04-21 08:48 | 49.27236 | 14.23808 | 30516 ft | 388 kts | 347° |
| 2026-04-21 08:48 | 49.29876 | 14.23001 | 30019 ft | 386 kts | 347° |
| 2026-04-21 08:48 | 49.32492 | 14.22199 | 29546 ft | 381 kts | 347° |
| 2026-04-21 08:48 | 49.35072 | 14.21408 | 29091 ft | 376 kts | 347° |
| 2026-04-21 08:49 | 49.37622 | 14.20628 | 28652 ft | 371 kts | 347° |
| 2026-04-21 08:49 | 49.40106 | 14.19868 | 28236 ft | 367 kts | 347° |
| 2026-04-21 08:49 | 49.42596 | 14.19109 | 27821 ft | 363 kts | 347° |
| 2026-04-21 08:49 | 49.45057 | 14.18358 | 27409 ft | 358 kts | 347° |
| 2026-04-21 08:50 | 49.47490 | 14.17615 | 27021 ft | 354 kts | 347° |
| 2026-04-21 08:50 | 49.49893 | 14.16877 | 26613 ft | 350 kts | 347° |
| 2026-04-21 08:50 | 49.52269 | 14.16142 | 26225 ft | 347 kts | 347° |
| 2026-04-21 08:50 | 49.54621 | 14.15415 | 25830 ft | 343 kts | 347° |
| 2026-04-21 08:51 | 49.56948 | 14.14694 | 25441 ft | 339 kts | 347° |
| 2026-04-21 08:51 | 49.59256 | 14.13981 | 25029 ft | 337 kts | 347° |
| 2026-04-21 08:51 | 49.61516 | 14.13280 | 24628 ft | 334 kts | 347° |
| 2026-04-21 08:51 | 49.63804 | 14.12694 | 24199 ft | 333 kts | 354° |
| 2026-04-21 08:52 | 49.66120 | 14.12733 | 23749 ft | 334 kts | 5° |
| 2026-04-21 08:52 | 49.68404 | 14.13376 | 23250 ft | 333 kts | 10° |
| 2026-04-21 08:52 | 49.70667 | 14.14104 | 22800 ft | 331 kts | 10° |
| 2026-04-21 08:52 | 49.72918 | 14.14819 | 22359 ft | 329 kts | 10° |
| 2026-04-21 08:53 | 49.75154 | 14.15522 | 21922 ft | 327 kts | 10° |
| 2026-04-21 08:53 | 49.77378 | 14.16220 | 21491 ft | 325 kts | 10° |
| 2026-04-21 08:53 | 49.79591 | 14.16917 | 21063 ft | 324 kts | 11° |
| 2026-04-21 08:53 | 49.81764 | 14.17609 | 20640 ft | 322 kts | 12° |
| 2026-04-21 08:54 | 49.83857 | 14.18669 | 20226 ft | 322 kts | 25° |
| 2026-04-21 08:54 | 49.85774 | 14.20529 | 19797 ft | 322 kts | 38° |
| 2026-04-21 08:54 | 49.87336 | 14.23009 | 19356 ft | 323 kts | 52° |
| 2026-04-21 08:54 | 49.88494 | 14.25996 | 18922 ft | 324 kts | 62° |
| 2026-04-21 08:55 | 49.89506 | 14.29119 | 18488 ft | 324 kts | 61° |
| 2026-04-21 08:55 | 49.90517 | 14.32245 | 18002 ft | 324 kts | 62° |
| 2026-04-21 08:55 | 49.91388 | 14.35460 | 17567 ft | 324 kts | 73° |
| 2026-04-21 08:55 | 49.91659 | 14.38876 | 17143 ft | 325 kts | 90° |
| 2026-04-21 08:56 | 49.91275 | 14.42333 | 16719 ft | 327 kts | 107° |
| 2026-04-21 08:56 | 49.90254 | 14.45490 | 16298 ft | 330 kts | 123° |
| 2026-04-21 08:56 | 49.88864 | 14.48322 | 15858 ft | 330 kts | 125° |
| 2026-04-21 08:56 | 49.87464 | 14.51130 | 15428 ft | 329 kts | 125° |
| 2026-04-21 08:57 | 49.86068 | 14.53926 | 15021 ft | 328 kts | 125° |
| 2026-04-21 08:57 | 49.84685 | 14.56724 | 14614 ft | 326 kts | 125° |
| 2026-04-21 08:57 | 49.83313 | 14.59521 | 14204 ft | 326 kts | 124° |
| 2026-04-21 08:57 | 49.81947 | 14.62315 | 13772 ft | 325 kts | 124° |
| 2026-04-21 08:58 | 49.80587 | 14.65094 | 13341 ft | 322 kts | 125° |
| 2026-04-21 08:58 | 49.79255 | 14.67809 | 12930 ft | 320 kts | 125° |
| 2026-04-21 08:58 | 49.77913 | 14.70539 | 12520 ft | 317 kts | 124° |
| 2026-04-21 08:58 | 49.76581 | 14.73245 | 12099 ft | 315 kts | 124° |
| 2026-04-21 08:59 | 49.75399 | 14.76013 | 11938 ft | 301 kts | 110° |
| 2026-04-21 08:59 | 49.75007 | 14.79084 | 11744 ft | 288 kts | 85° |
| 2026-04-21 08:59 | 49.75494 | 14.82018 | 11424 ft | 281 kts | 61° |
| 2026-04-21 08:59 | 49.76719 | 14.84320 | 11062 ft | 277 kts | 38° |
| 2026-04-21 09:00 | 49.78445 | 14.85573 | 10472 ft | 279 kts | 11° |
| 2026-04-21 09:00 | 49.80356 | 14.85425 | 10078 ft | 284 kts | 345° |
| 2026-04-21 09:00 | 49.82055 | 14.83882 | 9690 ft | 288 kts | 317° |
| 2026-04-21 09:00 | 49.83245 | 14.81397 | 9073 ft | 287 kts | 307° |
| 2026-04-21 09:01 | 49.84437 | 14.78924 | 8326 ft | 286 kts | 309° |
| 2026-04-21 09:01 | 49.85612 | 14.76443 | 7672 ft | 287 kts | 309° |
| 2026-04-21 09:01 | 49.86761 | 14.73939 | 7277 ft | 285 kts | 308° |
| 2026-04-21 09:01 | 49.87916 | 14.71453 | 6896 ft | 282 kts | 310° |
| 2026-04-21 09:02 | 49.89107 | 14.69025 | 6499 ft | 281 kts | 311° |
| 2026-04-21 09:02 | 49.90302 | 14.66610 | 6012 ft | 282 kts | 310° |
| 2026-04-21 09:02 | 49.91474 | 14.64226 | 5576 ft | 280 kts | 310° |
| 2026-04-21 09:03 | 49.93755 | 14.59568 | 5165 ft | 260 kts | 310° |
| 2026-04-21 09:03 | 49.94818 | 14.57393 | 5040 ft | 243 kts | 311° |
| 2026-04-21 09:03 | 49.95818 | 14.55351 | 4939 ft | 235 kts | 311° |
| 2026-04-21 09:03 | 49.96808 | 14.53330 | 4830 ft | 235 kts | 310° |
| 2026-04-21 09:04 | 49.97795 | 14.51311 | 4736 ft | 233 kts | 310° |
| 2026-04-21 09:04 | 49.98752 | 14.49348 | 4633 ft | 223 kts | 311° |
| 2026-04-21 09:04 | 49.99672 | 14.47463 | 4367 ft | 221 kts | 311° |
| 2026-04-21 09:04 | 50.00598 | 14.45563 | 4080 ft | 220 kts | 311° |
| 2026-04-21 09:05 | 50.01515 | 14.43681 | 3779 ft | 215 kts | 311° |
| 2026-04-21 09:05 | 50.02386 | 14.41887 | 3522 ft | 201 kts | 311° |
| 2026-04-21 09:05 | 50.03203 | 14.40207 | 3222 ft | 189 kts | 310° |
| 2026-04-21 09:05 | 50.03970 | 14.38629 | 2983 ft | 174 kts | 312° |
| 2026-04-21 09:06 | 50.04662 | 14.37201 | 2738 ft | 158 kts | 312° |
| 2026-04-21 09:06 | 50.05307 | 14.35877 | 2526 ft | 150 kts | 312° |
| 2026-04-21 09:06 | 50.05924 | 14.34607 | 2342 ft | 149 kts | 311° |
| 2026-04-21 09:06 | 50.06546 | 14.33331 | 2128 ft | 148 kts | 310° |
| 2026-04-21 09:07 | 50.07158 | 14.32051 | 1911 ft | 147 kts | 313° |
| 2026-04-21 09:07 | 50.07771 | 14.30793 | 1712 ft | 145 kts | 315° |
| 2026-04-21 09:07 | 50.08382 | 14.29543 | 1474 ft | 144 kts | 313° |
| 2026-04-21 09:07 | 50.08985 | 14.28297 | 1280 ft | 143 kts | 304° |
| 2026-04-21 09:08 | 50.09543 | 14.27133 | 1208 ft | 119 kts | 307° |
| 2026-04-21 09:08 | 50.09984 | 14.26235 | 1196 ft | 92 kts | 306° |
| 2026-04-21 09:08 | 50.10329 | 14.25512 | 1176 ft | 76 kts | 307° |
| 2026-04-21 09:08 | 50.10570 | 14.25013 | 1163 ft | 42 kts | 307° |
| 2026-04-21 09:09 | 50.10709 | 14.24724 | 1161 ft | 23 kts | 308° |
| 2026-04-21 09:09 | 50.10802 | 14.24713 | 1158 ft | 17 kts | 70° |
| 2026-04-21 09:09 | 50.10815 | 14.24926 | 1154 ft | 23 kts | 85° |
| 2026-04-21 09:09 | 50.10801 | 14.25173 | 1157 ft | 23 kts | 103° |
| 2026-04-21 09:10 | 50.10729 | 14.25386 | 1165 ft | 20 kts | 119° |
| 2026-04-21 09:10 | 50.10666 | 14.25562 | 1170 ft | 18 kts | 119° |
| 2026-04-21 09:10 | 50.10607 | 14.25725 | 1173 ft | 17 kts | 117° |
| 2026-04-21 09:10 | 50.10543 | 14.25893 | 1173 ft | 19 kts | 121° |
| 2026-04-21 09:11 | 50.10601 | 14.26041 | 1173 ft | 19 kts | 31° |
| 2026-04-21 09:11 | 50.10713 | 14.26158 | 1171 ft | 20 kts | 34° |
| 2026-04-21 09:11 | 50.10804 | 14.26264 | 1171 ft | 14 kts | 50° |
| 2026-04-21 09:11 | 50.10789 | 14.26389 | 1170 ft | 13 kts | 128° |
| 2026-04-21 09:12 | 50.10732 | 14.26416 | 1174 ft | 9 kts | 208° |
| 2026-04-21 09:12 | 50.10697 | 14.26378 | 1171 ft | 0 kts | 214° |